sensor_id;sensor_type;location;lat;lon;timestamp;P1;durP1;ratioP1;P2;durP2;ratioP2
8349;SDS011;60699;48.946;8.412;2022-09-30T00:01:42;4.75;;;3.33;;
8349;SDS011;60699;48.946;8.412;2022-09-30T00:04:12;4.35;;;3.53;;
8349;SDS011;60699;48.946;8.412;2022-09-30T00:06:41;5.05;;;4.05;;
8349;SDS011;60699;48.946;8.412;2022-09-30T00:09:08;3.40;;;3.20;;
8349;SDS011;60699;48.946;8.412;2022-09-30T00:11:37;3.60;;;3.30;;
8349;SDS011;60699;48.946;8.412;2022-09-30T00:14:04;3.70;;;3.20;;
8349;SDS011;60699;48.946;8.412;2022-09-30T00:16:32;3.20;;;3.00;;
8349;SDS011;60699;48.946;8.412;2022-09-30T00:19:00;4.63;;;3.47;;
8349;SDS011;60699;48.946;8.412;2022-09-30T00:21:27;5.63;;;4.28;;
8349;SDS011;60699;48.946;8.412;2022-09-30T00:23:56;4.15;;;3.85;;
8349;SDS011;60699;48.946;8.412;2022-09-30T00:26:23;5.97;;;4.35;;
8349;SDS011;60699;48.946;8.412;2022-09-30T00:28:50;6.35;;;3.75;;
8349;SDS011;60699;48.946;8.412;2022-09-30T00:31:18;3.83;;;3.53;;
8349;SDS011;60699;48.946;8.412;2022-09-30T00:33:46;4.57;;;3.97;;
8349;SDS011;60699;48.946;8.412;2022-09-30T00:36:30;4.57;;;3.65;;
8349;SDS011;60699;48.946;8.412;2022-09-30T00:38:59;4.22;;;3.83;;
8349;SDS011;60699;48.946;8.412;2022-09-30T00:41:26;4.82;;;3.85;;
8349;SDS011;60699;48.946;8.412;2022-09-30T00:43:53;5.25;;;3.60;;
8349;SDS011;60699;48.946;8.412;2022-09-30T00:46:22;4.63;;;3.63;;
8349;SDS011;60699;48.946;8.412;2022-09-30T00:48:51;6.78;;;4.20;;
8349;SDS011;60699;48.946;8.412;2022-09-30T00:51:19;4.70;;;4.30;;
8349;SDS011;60699;48.946;8.412;2022-09-30T00:53:51;4.57;;;3.80;;
8349;SDS011;60699;48.946;8.412;2022-09-30T00:56:22;3.33;;;3.13;;
8349;SDS011;60699;48.946;8.412;2022-09-30T00:58:50;4.57;;;3.95;;
8349;SDS011;60699;48.946;8.412;2022-09-30T01:01:19;5.45;;;4.32;;
8349;SDS011;60699;48.946;8.412;2022-09-30T01:03:47;4.90;;;3.65;;
8349;SDS011;60699;48.946;8.412;2022-09-30T01:06:16;3.55;;;3.35;;
8349;SDS011;60699;48.946;8.412;2022-09-30T01:08:43;6.40;;;3.50;;
8349;SDS011;60699;48.946;8.412;2022-09-30T01:11:11;8.50;;;3.40;;
8349;SDS011;60699;48.946;8.412;2022-09-30T01:13:40;3.45;;;3.22;;
8349;SDS011;60699;48.946;8.412;2022-09-30T01:16:12;3.40;;;3.10;;
8349;SDS011;60699;48.946;8.412;2022-09-30T01:18:49;2.92;;;2.72;;
8349;SDS011;60699;48.946;8.412;2022-09-30T01:21:25;3.20;;;2.95;;
8349;SDS011;60699;48.946;8.412;2022-09-30T01:26:52;5.13;;;4.50;;
8349;SDS011;60699;48.946;8.412;2022-09-30T01:32:10;3.70;;;3.40;;
8349;SDS011;60699;48.946;8.412;2022-09-30T01:34:44;3.72;;;3.33;;
8349;SDS011;60699;48.946;8.412;2022-09-30T01:37:15;4.25;;;3.45;;
8349;SDS011;60699;48.946;8.412;2022-09-30T01:39:49;3.17;;;2.95;;
8349;SDS011;60699;48.946;8.412;2022-09-30T01:42:19;3.30;;;3.00;;
8349;SDS011;60699;48.946;8.412;2022-09-30T01:44:51;4.38;;;3.90;;
8349;SDS011;60699;48.946;8.412;2022-09-30T01:47:24;4.38;;;3.85;;
8349;SDS011;60699;48.946;8.412;2022-09-30T01:49:53;4.72;;;4.32;;
8349;SDS011;60699;48.946;8.412;2022-09-30T01:52:23;4.30;;;3.90;;
8349;SDS011;60699;48.946;8.412;2022-09-30T01:54:53;4.00;;;3.67;;
8349;SDS011;60699;48.946;8.412;2022-09-30T01:57:22;3.60;;;3.22;;
8349;SDS011;60699;48.946;8.412;2022-09-30T01:59:52;3.67;;;3.30;;
8349;SDS011;60699;48.946;8.412;2022-09-30T02:02:22;4.72;;;4.00;;
8349;SDS011;60699;48.946;8.412;2022-09-30T02:04:52;3.67;;;3.38;;
8349;SDS011;60699;48.946;8.412;2022-09-30T02:07:23;5.38;;;4.00;;
8349;SDS011;60699;48.946;8.412;2022-09-30T02:09:53;6.43;;;3.40;;
8349;SDS011;60699;48.946;8.412;2022-09-30T02:12:21;5.03;;;3.28;;
8349;SDS011;60699;48.946;8.412;2022-09-30T02:14:51;3.60;;;3.30;;
8349;SDS011;60699;48.946;8.412;2022-09-30T02:17:21;3.80;;;3.50;;
8349;SDS011;60699;48.946;8.412;2022-09-30T02:19:53;3.97;;;3.58;;
8349;SDS011;60699;48.946;8.412;2022-09-30T02:22:24;4.10;;;2.97;;
8349;SDS011;60699;48.946;8.412;2022-09-30T02:24:54;4.20;;;3.80;;
8349;SDS011;60699;48.946;8.412;2022-09-30T02:27:23;5.75;;;3.65;;
8349;SDS011;60699;48.946;8.412;2022-09-30T02:29:53;3.15;;;2.95;;
8349;SDS011;60699;48.946;8.412;2022-09-30T02:32:23;3.78;;;3.47;;
8349;SDS011;60699;48.946;8.412;2022-09-30T02:34:51;4.03;;;3.53;;
8349;SDS011;60699;48.946;8.412;2022-09-30T02:37:23;5.07;;;4.57;;
8349;SDS011;60699;48.946;8.412;2022-09-30T02:39:53;4.50;;;3.53;;
8349;SDS011;60699;48.946;8.412;2022-09-30T02:42:24;4.22;;;3.83;;
8349;SDS011;60699;48.946;8.412;2022-09-30T02:44:52;3.47;;;3.22;;
8349;SDS011;60699;48.946;8.412;2022-09-30T02:47:22;5.45;;;4.05;;
8349;SDS011;60699;48.946;8.412;2022-09-30T02:49:53;5.70;;;4.30;;
8349;SDS011;60699;48.946;8.412;2022-09-30T02:52:26;4.18;;;3.72;;
8349;SDS011;60699;48.946;8.412;2022-09-30T02:54:59;4.88;;;4.38;;
8349;SDS011;60699;48.946;8.412;2022-09-30T02:57:32;7.38;;;4.40;;
8349;SDS011;60699;48.946;8.412;2022-09-30T03:00:01;4.28;;;3.92;;
8349;SDS011;60699;48.946;8.412;2022-09-30T03:02:28;5.47;;;3.95;;
8349;SDS011;60699;48.946;8.412;2022-09-30T03:04:55;5.28;;;4.78;;
8349;SDS011;60699;48.946;8.412;2022-09-30T03:07:23;6.03;;;4.45;;
8349;SDS011;60699;48.946;8.412;2022-09-30T03:09:55;4.80;;;4.40;;
8349;SDS011;60699;48.946;8.412;2022-09-30T03:12:25;6.13;;;5.57;;
8349;SDS011;60699;48.946;8.412;2022-09-30T03:15:17;7.57;;;5.35;;
8349;SDS011;60699;48.946;8.412;2022-09-30T03:17:59;9.68;;;6.38;;
8349;SDS011;60699;48.946;8.412;2022-09-30T03:20:33;8.45;;;5.80;;
8349;SDS011;60699;48.946;8.412;2022-09-30T03:23:08;5.15;;;4.00;;
8349;SDS011;60699;48.946;8.412;2022-09-30T03:25:40;3.72;;;3.42;;
8349;SDS011;60699;48.946;8.412;2022-09-30T03:28:13;3.97;;;3.55;;
8349;SDS011;60699;48.946;8.412;2022-09-30T03:30:46;5.25;;;4.22;;
8349;SDS011;60699;48.946;8.412;2022-09-30T03:33:15;7.05;;;4.95;;
8349;SDS011;60699;48.946;8.412;2022-09-30T03:35:48;4.28;;;3.78;;
8349;SDS011;60699;48.946;8.412;2022-09-30T03:38:23;6.95;;;4.63;;
8349;SDS011;60699;48.946;8.412;2022-09-30T03:40:56;5.97;;;5.30;;
8349;SDS011;60699;48.946;8.412;2022-09-30T03:43:24;9.20;;;6.55;;
8349;SDS011;60699;48.946;8.412;2022-09-30T03:45:54;10.77;;;7.28;;
8349;SDS011;60699;48.946;8.412;2022-09-30T03:48:23;10.32;;;6.95;;
8349;SDS011;60699;48.946;8.412;2022-09-30T03:50:51;10.75;;;7.45;;
8349;SDS011;60699;48.946;8.412;2022-09-30T03:53:18;9.98;;;7.30;;
8349;SDS011;60699;48.946;8.412;2022-09-30T03:55:47;9.10;;;6.88;;
8349;SDS011;60699;48.946;8.412;2022-09-30T03:58:16;8.25;;;6.63;;
8349;SDS011;60699;48.946;8.412;2022-09-30T04:00:45;8.80;;;5.03;;
8349;SDS011;60699;48.946;8.412;2022-09-30T04:03:13;6.75;;;5.47;;
8349;SDS011;60699;48.946;8.412;2022-09-30T04:05:40;9.15;;;5.45;;
8349;SDS011;60699;48.946;8.412;2022-09-30T04:08:07;6.30;;;5.63;;
8349;SDS011;60699;48.946;8.412;2022-09-30T04:10:34;7.68;;;4.55;;
8349;SDS011;60699;48.946;8.412;2022-09-30T04:13:01;7.32;;;5.50;;
8349;SDS011;60699;48.946;8.412;2022-09-30T04:15:30;9.00;;;6.15;;
8349;SDS011;60699;48.946;8.412;2022-09-30T04:17:57;7.07;;;6.00;;
8349;SDS011;60699;48.946;8.412;2022-09-30T04:20:24;14.82;;;6.05;;
8349;SDS011;60699;48.946;8.412;2022-09-30T04:22:51;10.38;;;6.75;;
8349;SDS011;60699;48.946;8.412;2022-09-30T04:25:18;11.27;;;6.80;;
8349;SDS011;60699;48.946;8.412;2022-09-30T04:27:45;8.02;;;7.00;;
8349;SDS011;60699;48.946;8.412;2022-09-30T04:30:12;9.57;;;6.60;;
8349;SDS011;60699;48.946;8.412;2022-09-30T04:32:42;10.27;;;8.13;;
8349;SDS011;60699;48.946;8.412;2022-09-30T04:35:10;12.93;;;8.27;;
8349;SDS011;60699;48.946;8.412;2022-09-30T04:37:40;12.23;;;7.70;;
8349;SDS011;60699;48.946;8.412;2022-09-30T04:40:07;11.10;;;8.02;;
8349;SDS011;60699;48.946;8.412;2022-09-30T04:42:35;17.00;;;8.02;;
8349;SDS011;60699;48.946;8.412;2022-09-30T04:45:02;15.00;;;9.45;;
8349;SDS011;60699;48.946;8.412;2022-09-30T04:47:29;8.57;;;7.32;;
8349;SDS011;60699;48.946;8.412;2022-09-30T04:49:57;13.40;;;8.07;;
8349;SDS011;60699;48.946;8.412;2022-09-30T04:52:24;11.63;;;7.72;;
8349;SDS011;60699;48.946;8.412;2022-09-30T04:54:51;16.40;;;8.35;;
8349;SDS011;60699;48.946;8.412;2022-09-30T04:57:19;16.20;;;9.60;;
8349;SDS011;60699;48.946;8.412;2022-09-30T04:59:46;18.00;;;8.80;;
8349;SDS011;60699;48.946;8.412;2022-09-30T05:02:14;13.23;;;8.50;;
8349;SDS011;60699;48.946;8.412;2022-09-30T05:04:41;11.35;;;8.20;;
8349;SDS011;60699;48.946;8.412;2022-09-30T05:07:10;10.75;;;6.60;;
8349;SDS011;60699;48.946;8.412;2022-09-30T05:09:37;13.45;;;7.18;;
8349;SDS011;60699;48.946;8.412;2022-09-30T05:12:04;13.80;;;7.40;;
8349;SDS011;60699;48.946;8.412;2022-09-30T05:14:32;12.85;;;7.72;;
8349;SDS011;60699;48.946;8.412;2022-09-30T05:16:59;13.02;;;7.93;;
8349;SDS011;60699;48.946;8.412;2022-09-30T05:19:27;16.10;;;8.48;;
8349;SDS011;60699;48.946;8.412;2022-09-30T05:21:54;16.23;;;9.70;;
8349;SDS011;60699;48.946;8.412;2022-09-30T05:24:22;15.15;;;8.88;;
8349;SDS011;60699;48.946;8.412;2022-09-30T05:26:49;10.48;;;7.53;;
8349;SDS011;60699;48.946;8.412;2022-09-30T05:29:16;12.65;;;7.82;;
8349;SDS011;60699;48.946;8.412;2022-09-30T05:31:43;10.80;;;7.85;;
8349;SDS011;60699;48.946;8.412;2022-09-30T05:34:10;14.27;;;7.00;;
8349;SDS011;60699;48.946;8.412;2022-09-30T05:36:40;10.57;;;7.75;;
8349;SDS011;60699;48.946;8.412;2022-09-30T05:39:07;15.40;;;8.68;;
8349;SDS011;60699;48.946;8.412;2022-09-30T05:41:36;12.25;;;7.78;;
8349;SDS011;60699;48.946;8.412;2022-09-30T05:44:03;11.52;;;7.70;;
8349;SDS011;60699;48.946;8.412;2022-09-30T05:46:33;10.77;;;8.05;;
8349;SDS011;60699;48.946;8.412;2022-09-30T05:49:00;11.43;;;8.60;;
8349;SDS011;60699;48.946;8.412;2022-09-30T05:51:27;11.50;;;8.35;;
8349;SDS011;60699;48.946;8.412;2022-09-30T05:53:55;12.82;;;8.35;;
8349;SDS011;60699;48.946;8.412;2022-09-30T05:56:22;12.27;;;7.25;;
8349;SDS011;60699;48.946;8.412;2022-09-30T05:58:50;13.15;;;8.27;;
8349;SDS011;60699;48.946;8.412;2022-09-30T06:01:17;16.73;;;8.07;;
8349;SDS011;60699;48.946;8.412;2022-09-30T06:03:45;8.32;;;6.13;;
8349;SDS011;60699;48.946;8.412;2022-09-30T06:06:12;8.95;;;5.55;;
8349;SDS011;60699;48.946;8.412;2022-09-30T06:08:40;7.43;;;6.10;;
8349;SDS011;60699;48.946;8.412;2022-09-30T06:11:08;4.60;;;4.20;;
8349;SDS011;60699;48.946;8.412;2022-09-30T06:13:37;6.32;;;5.82;;
8349;SDS011;60699;48.946;8.412;2022-09-30T06:16:06;4.68;;;4.28;;
8349;SDS011;60699;48.946;8.412;2022-09-30T06:18:33;7.50;;;4.95;;
8349;SDS011;60699;48.946;8.412;2022-09-30T06:21:01;6.38;;;5.05;;
8349;SDS011;60699;48.946;8.412;2022-09-30T06:23:28;7.32;;;5.10;;
8349;SDS011;60699;48.946;8.412;2022-09-30T06:25:56;7.13;;;5.00;;
8349;SDS011;60699;48.946;8.412;2022-09-30T06:28:23;9.60;;;5.07;;
8349;SDS011;60699;48.946;8.412;2022-09-30T06:30:51;6.57;;;5.53;;
8349;SDS011;60699;48.946;8.412;2022-09-30T06:33:20;9.23;;;5.80;;
8349;SDS011;60699;48.946;8.412;2022-09-30T06:35:47;16.17;;;7.70;;
8349;SDS011;60699;48.946;8.412;2022-09-30T06:38:14;12.43;;;8.43;;
8349;SDS011;60699;48.946;8.412;2022-09-30T06:40:41;15.68;;;7.20;;
8349;SDS011;60699;48.946;8.412;2022-09-30T06:43:08;12.25;;;8.02;;
8349;SDS011;60699;48.946;8.412;2022-09-30T06:45:36;10.68;;;6.50;;
8349;SDS011;60699;48.946;8.412;2022-09-30T06:48:03;11.30;;;6.53;;
8349;SDS011;60699;48.946;8.412;2022-09-30T06:50:33;7.88;;;7.07;;
8349;SDS011;60699;48.946;8.412;2022-09-30T06:53:01;12.13;;;7.45;;
8349;SDS011;60699;48.946;8.412;2022-09-30T06:55:30;9.45;;;6.80;;
8349;SDS011;60699;48.946;8.412;2022-09-30T06:57:57;10.50;;;7.20;;
8349;SDS011;60699;48.946;8.412;2022-09-30T07:00:25;12.27;;;7.32;;
8349;SDS011;60699;48.946;8.412;2022-09-30T07:02:53;9.80;;;8.40;;
8349;SDS011;60699;48.946;8.412;2022-09-30T07:05:20;15.50;;;7.30;;
8349;SDS011;60699;48.946;8.412;2022-09-30T07:07:50;9.00;;;7.85;;
8349;SDS011;60699;48.946;8.412;2022-09-30T07:10:17;9.18;;;7.07;;
8349;SDS011;60699;48.946;8.412;2022-09-30T07:12:47;12.35;;;6.20;;
8349;SDS011;60699;48.946;8.412;2022-09-30T07:15:15;8.65;;;6.35;;
8349;SDS011;60699;48.946;8.412;2022-09-30T07:17:47;10.25;;;7.47;;
8349;SDS011;60699;48.946;8.412;2022-09-30T07:20:15;9.65;;;6.93;;
8349;SDS011;60699;48.946;8.412;2022-09-30T07:22:42;11.32;;;7.55;;
8349;SDS011;60699;48.946;8.412;2022-09-30T07:25:11;9.80;;;5.50;;
8349;SDS011;60699;48.946;8.412;2022-09-30T07:27:39;9.10;;;7.18;;
8349;SDS011;60699;48.946;8.412;2022-09-30T07:30:07;8.90;;;6.80;;
8349;SDS011;60699;48.946;8.412;2022-09-30T07:32:34;9.05;;;7.38;;
8349;SDS011;60699;48.946;8.412;2022-09-30T07:35:01;12.18;;;8.13;;
8349;SDS011;60699;48.946;8.412;2022-09-30T07:37:28;8.20;;;7.15;;
8349;SDS011;60699;48.946;8.412;2022-09-30T07:40:00;10.02;;;7.88;;
8349;SDS011;60699;48.946;8.412;2022-09-30T07:42:29;11.07;;;9.90;;
8349;SDS011;60699;48.946;8.412;2022-09-30T07:44:57;12.90;;;8.20;;
8349;SDS011;60699;48.946;8.412;2022-09-30T07:47:25;14.10;;;9.23;;
8349;SDS011;60699;48.946;8.412;2022-09-30T07:49:52;13.25;;;8.07;;
8349;SDS011;60699;48.946;8.412;2022-09-30T07:52:19;11.52;;;9.35;;
8349;SDS011;60699;48.946;8.412;2022-09-30T07:54:46;10.75;;;8.35;;
8349;SDS011;60699;48.946;8.412;2022-09-30T07:57:13;13.18;;;9.10;;
8349;SDS011;60699;48.946;8.412;2022-09-30T07:59:41;11.40;;;9.30;;
8349;SDS011;60699;48.946;8.412;2022-09-30T08:02:10;12.93;;;8.60;;
8349;SDS011;60699;48.946;8.412;2022-09-30T08:04:39;11.35;;;8.95;;
8349;SDS011;60699;48.946;8.412;2022-09-30T08:07:06;10.85;;;9.13;;
8349;SDS011;60699;48.946;8.412;2022-09-30T08:09:33;11.95;;;9.00;;
8349;SDS011;60699;48.946;8.412;2022-09-30T08:12:01;18.52;;;10.65;;
8349;SDS011;60699;48.946;8.412;2022-09-30T08:14:29;15.70;;;10.35;;
8349;SDS011;60699;48.946;8.412;2022-09-30T08:16:57;14.48;;;10.25;;
8349;SDS011;60699;48.946;8.412;2022-09-30T08:19:25;12.52;;;9.57;;
8349;SDS011;60699;48.946;8.412;2022-09-30T08:21:52;16.83;;;10.13;;
8349;SDS011;60699;48.946;8.412;2022-09-30T08:24:20;14.45;;;10.55;;
8349;SDS011;60699;48.946;8.412;2022-09-30T08:26:47;15.48;;;10.48;;
8349;SDS011;60699;48.946;8.412;2022-09-30T08:29:15;14.25;;;9.85;;
8349;SDS011;60699;48.946;8.412;2022-09-30T08:31:42;12.90;;;9.43;;
8349;SDS011;60699;48.946;8.412;2022-09-30T08:34:10;12.82;;;9.02;;
8349;SDS011;60699;48.946;8.412;2022-09-30T08:36:38;14.45;;;11.30;;
8349;SDS011;60699;48.946;8.412;2022-09-30T08:39:05;12.73;;;10.52;;
8349;SDS011;60699;48.946;8.412;2022-09-30T08:44:24;11.50;;;8.50;;
8349;SDS011;60699;48.946;8.412;2022-09-30T08:46:53;11.73;;;9.55;;
8349;SDS011;60699;48.946;8.412;2022-09-30T08:49:29;12.38;;;9.70;;
8349;SDS011;60699;48.946;8.412;2022-09-30T08:52:00;12.70;;;9.82;;
8349;SDS011;60699;48.946;8.412;2022-09-30T08:54:30;14.57;;;10.52;;
8349;SDS011;60699;48.946;8.412;2022-09-30T08:56:57;13.50;;;9.63;;
8349;SDS011;60699;48.946;8.412;2022-09-30T08:59:27;12.30;;;9.27;;
8349;SDS011;60699;48.946;8.412;2022-09-30T09:01:57;13.15;;;9.93;;
8349;SDS011;60699;48.946;8.412;2022-09-30T09:04:27;11.80;;;10.52;;
8349;SDS011;60699;48.946;8.412;2022-09-30T09:06:56;18.17;;;12.05;;
8349;SDS011;60699;48.946;8.412;2022-09-30T09:12:10;13.77;;;9.68;;
8349;SDS011;60699;48.946;8.412;2022-09-30T09:14:43;12.68;;;9.23;;
8349;SDS011;60699;48.946;8.412;2022-09-30T09:17:19;12.55;;;10.05;;
8349;SDS011;60699;48.946;8.412;2022-09-30T09:19:53;10.93;;;8.40;;
8349;SDS011;60699;48.946;8.412;2022-09-30T09:22:24;15.57;;;9.95;;
8349;SDS011;60699;48.946;8.412;2022-09-30T09:24:52;10.35;;;9.15;;
8349;SDS011;60699;48.946;8.412;2022-09-30T09:27:20;11.23;;;9.10;;
8349;SDS011;60699;48.946;8.412;2022-09-30T09:29:53;13.10;;;9.88;;
8349;SDS011;60699;48.946;8.412;2022-09-30T09:32:23;11.65;;;8.68;;
8349;SDS011;60699;48.946;8.412;2022-09-30T09:34:54;12.32;;;10.00;;
8349;SDS011;60699;48.946;8.412;2022-09-30T09:37:24;12.15;;;9.77;;
8349;SDS011;60699;48.946;8.412;2022-09-30T09:40:14;11.60;;;9.35;;
8349;SDS011;60699;48.946;8.412;2022-09-30T09:42:50;9.93;;;8.50;;
8349;SDS011;60699;48.946;8.412;2022-09-30T09:45:21;13.75;;;10.80;;
8349;SDS011;60699;48.946;8.412;2022-09-30T09:47:50;14.82;;;10.75;;
8349;SDS011;60699;48.946;8.412;2022-09-30T09:50:20;11.48;;;9.40;;
8349;SDS011;60699;48.946;8.412;2022-09-30T09:53:04;11.70;;;9.63;;
8349;SDS011;60699;48.946;8.412;2022-09-30T09:55:37;13.55;;;10.68;;
8349;SDS011;60699;48.946;8.412;2022-09-30T09:58:05;16.30;;;10.90;;
8349;SDS011;60699;48.946;8.412;2022-09-30T10:00:32;13.00;;;11.60;;
8349;SDS011;60699;48.946;8.412;2022-09-30T10:03:23;16.00;;;12.23;;
8349;SDS011;60699;48.946;8.412;2022-09-30T10:06:00;13.55;;;10.70;;
8349;SDS011;60699;48.946;8.412;2022-09-30T10:08:27;12.30;;;9.68;;
8349;SDS011;60699;48.946;8.412;2022-09-30T10:10:57;15.23;;;10.20;;
8349;SDS011;60699;48.946;8.412;2022-09-30T10:13:25;11.23;;;10.07;;
8349;SDS011;60699;48.946;8.412;2022-09-30T10:15:53;12.00;;;9.90;;
8349;SDS011;60699;48.946;8.412;2022-09-30T10:18:22;14.73;;;10.60;;
8349;SDS011;60699;48.946;8.412;2022-09-30T10:20:52;11.70;;;9.18;;
8349;SDS011;60699;48.946;8.412;2022-09-30T10:23:21;13.80;;;10.95;;
8349;SDS011;60699;48.946;8.412;2022-09-30T10:25:59;12.70;;;11.40;;
8349;SDS011;60699;48.946;8.412;2022-09-30T10:28:28;9.85;;;8.65;;
8349;SDS011;60699;48.946;8.412;2022-09-30T10:30:59;12.68;;;9.95;;
8349;SDS011;60699;48.946;8.412;2022-09-30T10:33:32;12.13;;;9.27;;
8349;SDS011;60699;48.946;8.412;2022-09-30T10:36:02;16.63;;;10.25;;
8349;SDS011;60699;48.946;8.412;2022-09-30T10:38:31;15.18;;;10.85;;
8349;SDS011;60699;48.946;8.412;2022-09-30T10:40:59;11.43;;;8.73;;
8349;SDS011;60699;48.946;8.412;2022-09-30T10:43:27;10.63;;;9.52;;
8349;SDS011;60699;48.946;8.412;2022-09-30T10:45:56;13.50;;;10.52;;
8349;SDS011;60699;48.946;8.412;2022-09-30T10:48:28;13.35;;;9.40;;
8349;SDS011;60699;48.946;8.412;2022-09-30T10:50:57;11.50;;;8.52;;
8349;SDS011;60699;48.946;8.412;2022-09-30T10:53:25;8.93;;;8.00;;
8349;SDS011;60699;48.946;8.412;2022-09-30T10:55:56;13.73;;;9.15;;
8349;SDS011;60699;48.946;8.412;2022-09-30T10:58:27;10.73;;;9.68;;
8349;SDS011;60699;48.946;8.412;2022-09-30T11:00:56;13.10;;;10.80;;
8349;SDS011;60699;48.946;8.412;2022-09-30T11:03:26;15.52;;;9.73;;
8349;SDS011;60699;48.946;8.412;2022-09-30T11:05:56;17.15;;;9.40;;
8349;SDS011;60699;48.946;8.412;2022-09-30T11:08:28;9.52;;;8.50;;
8349;SDS011;60699;48.946;8.412;2022-09-30T11:10:58;9.65;;;8.70;;
8349;SDS011;60699;48.946;8.412;2022-09-30T11:13:28;11.68;;;8.23;;
8349;SDS011;60699;48.946;8.412;2022-09-30T11:16:00;11.38;;;9.43;;
8349;SDS011;60699;48.946;8.412;2022-09-30T11:18:30;11.75;;;9.15;;
8349;SDS011;60699;48.946;8.412;2022-09-30T11:21:00;12.60;;;9.48;;
8349;SDS011;60699;48.946;8.412;2022-09-30T11:23:29;12.90;;;9.80;;
8349;SDS011;60699;48.946;8.412;2022-09-30T11:26:02;9.75;;;8.68;;
8349;SDS011;60699;48.946;8.412;2022-09-30T11:28:35;10.32;;;7.95;;
8349;SDS011;60699;48.946;8.412;2022-09-30T11:31:07;12.90;;;10.27;;
8349;SDS011;60699;48.946;8.412;2022-09-30T11:33:42;8.95;;;7.88;;
8349;SDS011;60699;48.946;8.412;2022-09-30T11:36:11;11.35;;;8.95;;
8349;SDS011;60699;48.946;8.412;2022-09-30T11:38:46;10.05;;;8.25;;
8349;SDS011;60699;48.946;8.412;2022-09-30T11:41:18;10.98;;;7.45;;
8349;SDS011;60699;48.946;8.412;2022-09-30T11:43:51;8.65;;;7.75;;
8349;SDS011;60699;48.946;8.412;2022-09-30T11:46:24;10.43;;;9.30;;
8349;SDS011;60699;48.946;8.412;2022-09-30T11:49:15;9.77;;;7.40;;
8349;SDS011;60699;48.946;8.412;2022-09-30T11:51:49;9.13;;;8.10;;
8349;SDS011;60699;48.946;8.412;2022-09-30T11:54:27;11.38;;;7.38;;
8349;SDS011;60699;48.946;8.412;2022-09-30T11:57:00;9.10;;;7.82;;
8349;SDS011;60699;48.946;8.412;2022-09-30T11:59:29;8.68;;;7.53;;
8349;SDS011;60699;48.946;8.412;2022-09-30T12:02:00;8.90;;;8.00;;
8349;SDS011;60699;48.946;8.412;2022-09-30T12:04:29;12.18;;;7.53;;
8349;SDS011;60699;48.946;8.412;2022-09-30T12:06:58;10.73;;;7.32;;
8349;SDS011;60699;48.946;8.412;2022-09-30T12:09:29;8.20;;;7.40;;
8349;SDS011;60699;48.946;8.412;2022-09-30T12:11:59;8.52;;;7.22;;
8349;SDS011;60699;48.946;8.412;2022-09-30T12:14:28;12.85;;;8.20;;
8349;SDS011;60699;48.946;8.412;2022-09-30T12:16:57;13.95;;;7.70;;
8349;SDS011;60699;48.946;8.412;2022-09-30T12:19:27;11.57;;;6.90;;
8349;SDS011;60699;48.946;8.412;2022-09-30T12:21:57;9.02;;;7.28;;
8349;SDS011;60699;48.946;8.412;2022-09-30T12:24:28;9.43;;;7.00;;
8349;SDS011;60699;48.946;8.412;2022-09-30T12:26:56;10.45;;;7.60;;
8349;SDS011;60699;48.946;8.412;2022-09-30T12:29:27;9.18;;;7.85;;
8349;SDS011;60699;48.946;8.412;2022-09-30T12:35:08;9.00;;;7.20;;
8349;SDS011;60699;48.946;8.412;2022-09-30T12:37:49;8.55;;;7.65;;
8349;SDS011;60699;48.946;8.412;2022-09-30T12:40:23;6.53;;;5.82;;
8349;SDS011;60699;48.946;8.412;2022-09-30T12:48:21;9.48;;;6.80;;
8349;SDS011;60699;48.946;8.412;2022-09-30T12:50:50;7.53;;;6.40;;
8349;SDS011;60699;48.946;8.412;2022-09-30T12:53:21;6.85;;;6.20;;
8349;SDS011;60699;48.946;8.412;2022-09-30T12:55:49;9.73;;;6.63;;
8349;SDS011;60699;48.946;8.412;2022-09-30T12:58:19;6.72;;;6.05;;
8349;SDS011;60699;48.946;8.412;2022-09-30T13:00:57;8.57;;;7.00;;
8349;SDS011;60699;48.946;8.412;2022-09-30T13:03:26;6.45;;;5.82;;
8349;SDS011;60699;48.946;8.412;2022-09-30T13:06:00;5.80;;;5.30;;
8349;SDS011;60699;48.946;8.412;2022-09-30T13:14:15;9.43;;;5.10;;
8349;SDS011;60699;48.946;8.412;2022-09-30T13:19:36;7.75;;;5.63;;
8349;SDS011;60699;48.946;8.412;2022-09-30T13:25:03;7.55;;;5.90;;
8349;SDS011;60699;48.946;8.412;2022-09-30T13:27:36;8.85;;;5.53;;
8349;SDS011;60699;48.946;8.412;2022-09-30T13:30:27;5.57;;;5.00;;
8349;SDS011;60699;48.946;8.412;2022-09-30T13:33:04;10.23;;;5.68;;
8349;SDS011;60699;48.946;8.412;2022-09-30T13:35:33;6.35;;;5.75;;
8349;SDS011;60699;48.946;8.412;2022-09-30T13:38:14;6.47;;;5.88;;
8349;SDS011;60699;48.946;8.412;2022-09-30T13:40:42;6.80;;;5.80;;
8349;SDS011;60699;48.946;8.412;2022-09-30T13:43:14;5.93;;;4.40;;
8349;SDS011;60699;48.946;8.412;2022-09-30T13:45:42;6.80;;;5.05;;
8349;SDS011;60699;48.946;8.412;2022-09-30T13:48:11;7.25;;;4.70;;
8349;SDS011;60699;48.946;8.412;2022-09-30T13:50:43;6.32;;;5.70;;
8349;SDS011;60699;48.946;8.412;2022-09-30T13:53:12;7.15;;;5.55;;
8349;SDS011;60699;48.946;8.412;2022-09-30T13:55:41;5.07;;;4.68;;
8349;SDS011;60699;48.946;8.412;2022-09-30T13:58:15;7.20;;;5.47;;
8349;SDS011;60699;48.946;8.412;2022-09-30T14:00:50;4.72;;;4.20;;
8349;SDS011;60699;48.946;8.412;2022-09-30T14:03:31;5.13;;;3.97;;
8349;SDS011;60699;48.946;8.412;2022-09-30T14:06:08;4.63;;;4.20;;
8349;SDS011;60699;48.946;8.412;2022-09-30T14:08:42;5.82;;;4.25;;
8349;SDS011;60699;48.946;8.412;2022-09-30T14:11:22;4.88;;;4.47;;
8349;SDS011;60699;48.946;8.412;2022-09-30T14:13:55;4.88;;;4.55;;
8349;SDS011;60699;48.946;8.412;2022-09-30T14:16:34;4.35;;;3.97;;
8349;SDS011;60699;48.946;8.412;2022-09-30T14:19:15;9.82;;;5.80;;
8349;SDS011;60699;48.946;8.412;2022-09-30T14:21:47;4.30;;;3.90;;
8349;SDS011;60699;48.946;8.412;2022-09-30T14:24:15;4.15;;;3.85;;
8349;SDS011;60699;48.946;8.412;2022-09-30T14:26:57;4.93;;;4.20;;
8349;SDS011;60699;48.946;8.412;2022-09-30T14:29:28;4.22;;;3.83;;
8349;SDS011;60699;48.946;8.412;2022-09-30T14:32:00;4.55;;;3.75;;
8349;SDS011;60699;48.946;8.412;2022-09-30T14:34:35;4.93;;;4.50;;
8349;SDS011;60699;48.946;8.412;2022-09-30T14:37:03;4.18;;;3.88;;
8349;SDS011;60699;48.946;8.412;2022-09-30T14:39:31;4.55;;;4.15;;
8349;SDS011;60699;48.946;8.412;2022-09-30T14:41:59;4.47;;;4.07;;
8349;SDS011;60699;48.946;8.412;2022-09-30T14:44:26;3.80;;;3.50;;
8349;SDS011;60699;48.946;8.412;2022-09-30T14:46:55;3.88;;;3.58;;
8349;SDS011;60699;48.946;8.412;2022-09-30T14:49:25;3.73;;;3.43;;
8349;SDS011;60699;48.946;8.412;2022-09-30T14:51:56;5.00;;;3.90;;
8349;SDS011;60699;48.946;8.412;2022-09-30T14:54:28;5.27;;;4.10;;
8349;SDS011;60699;48.946;8.412;2022-09-30T14:56:56;4.83;;;3.50;;
8349;SDS011;60699;48.946;8.412;2022-09-30T14:59:26;3.97;;;3.33;;
8349;SDS011;60699;48.946;8.412;2022-09-30T15:01:57;4.50;;;3.23;;
8349;SDS011;60699;48.946;8.412;2022-09-30T15:04:26;4.23;;;3.73;;
8349;SDS011;60699;48.946;8.412;2022-09-30T15:06:55;3.30;;;2.90;;
8349;SDS011;60699;48.946;8.412;2022-09-30T15:09:25;4.40;;;3.60;;
8349;SDS011;60699;48.946;8.412;2022-09-30T15:11:54;3.50;;;3.20;;
8349;SDS011;60699;48.946;8.412;2022-09-30T15:14:23;4.57;;;4.17;;
8349;SDS011;60699;48.946;8.412;2022-09-30T15:16:51;3.90;;;3.50;;
8349;SDS011;60699;48.946;8.412;2022-09-30T15:19:19;3.97;;;3.60;;
8349;SDS011;60699;48.946;8.412;2022-09-30T15:21:46;4.23;;;3.93;;
8349;SDS011;60699;48.946;8.412;2022-09-30T15:24:14;3.60;;;3.30;;
8349;SDS011;60699;48.946;8.412;2022-09-30T15:26:41;4.03;;;3.60;;
8349;SDS011;60699;48.946;8.412;2022-09-30T15:29:12;3.97;;;3.60;;
8349;SDS011;60699;48.946;8.412;2022-09-30T15:31:40;3.80;;;3.50;;
8349;SDS011;60699;48.946;8.412;2022-09-30T15:34:12;9.23;;;3.60;;
8349;SDS011;60699;48.946;8.412;2022-09-30T15:36:40;4.80;;;3.17;;
8349;SDS011;60699;48.946;8.412;2022-09-30T15:39:16;3.83;;;3.53;;
8349;SDS011;60699;48.946;8.412;2022-09-30T15:41:44;3.45;;;3.08;;
8349;SDS011;60699;48.946;8.412;2022-09-30T15:44:15;3.00;;;2.80;;